Time;durP1;ratioP1;P1;durP2;ratioP2;P2;SDS_P1;SDS_P2;PMS_P1;PMS_P2;Temp;Humidity;BMP_temperature;BMP_pressure;BME280_temperature;BME280_humidity;BME280_pressure;Samples;Min_cycle;Max_cycle;Signal;HPM_P1;HPM_P2
2021/03/22 00:00:28;;;;;;;;;;;4.00;81.40;;;;;;5057682;28;19916;-74
2021/03/22 00:02:54;;;;;;;;;;;3.90;81.50;;;;;;5092683;28;20375;-75
2021/03/22 00:05:21;;;;;;;;;;;3.90;81.50;;;;;;5092281;28;19912;-74
2021/03/22 00:07:46;;;;;;;;;;;3.90;81.50;;;;;;5092284;28;19912;-74
2021/03/22 00:10:12;;;;;;;;;;;3.90;81.50;;;;;;5092234;28;19912;-74
2021/03/22 00:12:38;;;;;;;;;;;3.90;81.60;;;;;;5073455;28;20385;-76
2021/03/22 00:15:06;;;;;;;;;;;3.80;81.60;;;;;;5092174;28;19912;-76
2021/03/22 00:17:32;;;;;;;;;;;3.80;81.70;;;;;;5092013;28;19912;-74
2021/03/22 00:19:57;;;;;;;;;;;3.80;81.80;;;;;;5091830;28;20018;-75
2021/03/22 00:22:23;;;;;;;;;;;3.80;81.80;;;;;;5092240;28;19912;-75
2021/03/22 00:24:48;;;;;;;;;;;3.80;81.80;;;;;;5092005;28;19916;-74
2021/03/22 00:27:14;;;;;;;;;;;3.80;81.90;;;;;;5091992;28;19912;-74
2021/03/22 00:29:39;;;;;;;;;;;3.70;81.90;;;;;;5092247;28;19927;-74
2021/03/22 00:32:05;;;;;;;;;;;3.70;81.80;;;;;;5091923;28;19912;-74
2021/03/22 00:34:31;;;;;;;;;;;3.70;81.80;;;;;;5091615;28;20269;-74
2021/03/22 00:36:57;;;;;;;;;;;3.70;81.70;;;;;;5091887;28;19965;-74
2021/03/22 00:39:22;;;;;;;;;;;3.70;81.70;;;;;;5091822;28;19912;-74
2021/03/22 00:41:48;;;;;;;;;;;3.70;81.70;;;;;;5073482;28;19969;-74
2021/03/22 00:44:13;;;;;;;;;;;3.70;81.70;;;;;;5073809;28;19919;-77
2021/03/22 00:46:39;;;;;;;;;;;3.60;81.70;;;;;;5093540;28;19911;-76
2021/03/22 00:49:05;;;;;;;;;;;3.60;81.80;;;;;;5095501;28;19937;-76
2021/03/22 00:51:30;;;;;;;;;;;3.60;81.90;;;;;;5095245;28;19912;-74
2021/03/22 00:53:56;;;;;;;;;;;3.60;82.00;;;;;;5077046;28;19919;-74
2021/03/22 00:56:21;;;;;;;;;;;3.60;82.00;;;;;;5095148;28;19963;-74
2021/03/22 00:58:47;;;;;;;;;;;3.50;82.00;;;;;;5095194;28;20412;-74
2021/03/22 01:01:12;;;;;;;;;;;3.50;82.00;;;;;;5094719;28;19963;-74
2021/03/22 01:03:38;;;;;;;;;;;3.50;82.00;;;;;;5076771;28;19912;-76
2021/03/22 01:06:06;;;;;;;;;;;3.50;82.10;;;;;;5095046;28;20293;-76
2021/03/22 01:08:32;;;;;;;;;;;3.40;82.10;;;;;;5094793;28;19946;-76
2021/03/22 01:11:00;;;;;;;;;;;3.40;82.10;;;;;;5094803;28;19997;-76
2021/03/22 01:13:27;;;;;;;;;;;3.40;82.20;;;;;;5095075;28;19926;-77
2021/03/22 01:15:52;;;;;;;;;;;3.40;82.20;;;;;;5095024;28;20293;-76
2021/03/22 01:18:21;;;;;;;;;;;3.40;82.10;;;;;;5094790;28;19912;-76
2021/03/22 01:20:49;;;;;;;;;;;3.40;82.10;;;;;;5094703;28;19916;-76
2021/03/22 01:23:16;;;;;;;;;;;3.50;82.10;;;;;;5076079;28;20022;-75
2021/03/22 01:25:42;;;;;;;;;;;3.40;82.00;;;;;;5094710;28;19965;-76
2021/03/22 01:28:09;;;;;;;;;;;3.40;82.20;;;;;;5094534;28;19911;-76
2021/03/22 01:30:50;;;;;;;;;;;3.30;82.10;;;;;;5076523;28;19916;-76
2021/03/22 01:33:18;;;;;;;;;;;3.40;82.10;;;;;;5094242;28;19920;-76
2021/03/22 01:35:43;;;;;;;;;;;3.40;82.10;;;;;;5094503;28;20002;-76
2021/03/22 01:38:09;;;;;;;;;;;3.40;82.20;;;;;;5094498;28;19950;-76
2021/03/22 01:40:55;;;;;;;;;;;3.40;82.10;;;;;;5094592;28;20484;-76
2021/03/22 01:43:28;;;;;;;;;;;3.40;82.00;;;;;;5078515;28;20346;-76
2021/03/22 01:45:54;;;;;;;;;;;3.40;82.00;;;;;;5094383;28;19962;-77
2021/03/22 01:48:19;;;;;;;;;;;3.40;82.10;;;;;;5094220;28;20353;-76
2021/03/22 01:50:45;;;;;;;;;;;3.50;82.10;;;;;;5094384;28;19938;-76
2021/03/22 01:53:11;;;;;;;;;;;3.40;82.00;;;;;;5094256;28;19961;-76
2021/03/22 01:55:37;;;;;;;;;;;3.40;82.00;;;;;;5074048;28;19912;-76
2021/03/22 01:58:02;;;;;;;;;;;3.50;82.10;;;;;;5093230;28;20045;-76
2021/03/22 02:00:31;;;;;;;;;;;3.40;82.00;;;;;;5094162;28;19916;-76
2021/03/22 02:03:09;;;;;;;;;;;3.50;82.10;;;;;;5094075;28;19912;-76
2021/03/22 02:05:36;;;;;;;;;;;3.40;82.00;;;;;;5093983;28;20384;-76
2021/03/22 02:08:07;;;;;;;;;;;3.40;82.00;;;;;;5094003;28;19962;-76
2021/03/22 02:10:34;;;;;;;;;;;3.40;82.00;;;;;;5093993;28;19938;-76
2021/03/22 02:12:59;;;;;;;;;;;3.40;82.00;;;;;;5093964;28;19908;-77
2021/03/22 02:15:25;;;;;;;;;;;3.40;82.20;;;;;;5093960;28;20290;-77
2021/03/22 02:18:10;;;;;;;;;;;3.40;82.30;;;;;;5093779;28;20362;-76
2021/03/22 02:20:50;;;;;;;;;;;3.40;82.40;;;;;;5093750;28;19924;-77
2021/03/22 02:23:36;;;;;;;;;;;3.40;82.40;;;;;;5093652;28;19912;-77
2021/03/22 02:26:21;;;;;;;;;;;3.40;82.40;;;;;;5093479;28;20323;-76
2021/03/22 02:29:01;;;;;;;;;;;3.30;82.40;;;;;;5093608;28;19912;-76
2021/03/22 02:31:32;;;;;;;;;;;3.30;82.30;;;;;;5093530;28;19919;-76
2021/03/22 02:34:11;;;;;;;;;;;3.30;82.40;;;;;;5093542;28;20034;-76
2021/03/22 02:36:45;;;;;;;;;;;3.20;82.40;;;;;;5093619;28;20041;-76
2021/03/22 02:39:10;;;;;;;;;;;3.30;82.60;;;;;;5075343;28;19912;-76
2021/03/22 02:41:46;;;;;;;;;;;3.30;82.60;;;;;;5075348;28;19916;-76
2021/03/22 02:44:13;;;;;;;;;;;3.30;82.70;;;;;;5093584;28;19912;-77
2021/03/22 02:46:39;;;;;;;;;;;3.30;82.70;;;;;;5093481;28;20281;-76
2021/03/22 02:49:08;;;;;;;;;;;3.40;82.70;;;;;;5093510;28;19911;-77
2021/03/22 02:51:44;;;;;;;;;;;3.30;82.50;;;;;;5093511;28;19961;-76
2021/03/22 02:54:30;;;;;;;;;;;3.50;82.50;;;;;;5093439;28;19946;-76
2021/03/22 02:57:03;;;;;;;;;;;3.50;82.40;;;;;;5078915;28;19965;-77
2021/03/22 02:59:30;;;;;;;;;;;3.60;82.40;;;;;;5093380;28;20308;-76
2021/03/22 03:01:58;;;;;;;;;;;3.50;82.30;;;;;;5093576;28;19915;-76
2021/03/22 03:04:24;;;;;;;;;;;3.60;82.30;;;;;;5074504;28;19920;-77
2021/03/22 03:06:52;;;;;;;;;;;3.60;82.20;;;;;;5093264;28;20163;-76
2021/03/22 03:09:20;;;;;;;;;;;3.60;82.10;;;;;;5093178;28;19937;-76
2021/03/22 03:11:45;;;;;;;;;;;3.70;82.00;;;;;;5093179;28;19916;-76
2021/03/22 03:14:11;;;;;;;;;;;3.70;82.00;;;;;;5093194;28;19919;-76
2021/03/22 03:16:38;;;;;;;;;;;3.70;81.90;;;;;;5092998;28;19912;-77
2021/03/22 03:19:04;;;;;;;;;;;3.80;82.00;;;;;;5074851;28;19912;-76
2021/03/22 03:21:29;;;;;;;;;;;3.90;81.90;;;;;;5092811;28;19915;-76
2021/03/22 03:23:55;;;;;;;;;;;3.90;81.90;;;;;;5092824;28;20393;-77
2021/03/22 03:26:21;;;;;;;;;;;3.90;81.80;;;;;;5093283;28;19912;-76
2021/03/22 03:28:46;;;;;;;;;;;3.90;81.80;;;;;;5092698;28;20359;-76
2021/03/22 03:31:12;;;;;;;;;;;4.10;81.90;;;;;;5092802;28;19916;-76
2021/03/22 03:33:38;;;;;;;;;;;4.10;81.90;;;;;;5092790;28;19912;-76
2021/03/22 03:36:04;;;;;;;;;;;4.00;81.80;;;;;;5092717;28;20009;-76
2021/03/22 03:38:29;;;;;;;;;;;4.00;81.80;;;;;;5074667;28;19918;-76
2021/03/22 03:40:55;;;;;;;;;;;4.10;81.80;;;;;;5092559;28;19916;-77
2021/03/22 03:43:20;;;;;;;;;;;4.10;81.80;;;;;;5092629;28;19919;-76
2021/03/22 03:45:48;;;;;;;;;;;4.20;81.80;;;;;;5074279;28;19912;-76
2021/03/22 03:48:17;;;;;;;;;;;4.20;81.80;;;;;;5092585;28;20743;-77
2021/03/22 03:50:42;;;;;;;;;;;4.20;81.90;;;;;;5092525;28;19954;-77
2021/03/22 03:53:09;;;;;;;;;;;4.20;81.80;;;;;;5092559;28;19919;-76
2021/03/22 03:55:34;;;;;;;;;;;4.30;81.90;;;;;;5089114;28;19912;-77
2021/03/22 03:58:01;;;;;;;;;;;4.30;81.80;;;;;;5092805;28;19912;-77
2021/03/22 04:00:28;;;;;;;;;;;4.30;81.80;;;;;;5092286;28;19911;-77
2021/03/22 04:02:54;;;;;;;;;;;4.30;81.80;;;;;;5092368;28;19992;-76
2021/03/22 04:05:20;;;;;;;;;;;4.40;81.90;;;;;;5092524;28;19912;-77
2021/03/22 04:07:46;;;;;;;;;;;4.50;81.90;;;;;;5092339;28;19923;-77
2021/03/22 04:10:12;;;;;;;;;;;4.40;81.80;;;;;;5057332;28;19916;-77
2021/03/22 04:12:37;;;;;;;;;;;4.40;81.80;;;;;;5092117;28;19969;-77
2021/03/22 04:15:05;;;;;;;;;;;4.40;81.80;;;;;;5092339;28;19965;-76
2021/03/22 04:17:31;;;;;;;;;;;4.50;81.90;;;;;;5092440;28;19980;-77
2021/03/22 04:19:56;;;;;;;;;;;4.40;81.80;;;;;;5092415;28;19911;-77
2021/03/22 04:22:22;;;;;;;;;;;4.40;81.80;;;;;;5095121;28;19963;-77
2021/03/22 04:24:47;;;;;;;;;;;4.50;81.90;;;;;;5077046;28;20366;-77
2021/03/22 04:27:13;;;;;;;;;;;4.50;81.90;;;;;;5096159;28;19919;-77
2021/03/22 04:29:38;;;;;;;;;;;4.50;81.90;;;;;;5096320;28;19919;-77
2021/03/22 04:32:04;;;;;;;;;;;4.60;82.00;;;;;;5095670;28;20293;-76
2021/03/22 04:34:30;;;;;;;;;;;4.50;82.00;;;;;;5095664;28;19915;-77
2021/03/22 04:36:55;;;;;;;;;;;4.60;82.00;;;;;;5095736;28;19919;-77
2021/03/22 04:39:21;;;;;;;;;;;4.60;82.00;;;;;;5095517;28;20008;-77
2021/03/22 04:41:47;;;;;;;;;;;4.60;82.10;;;;;;5076586;28;19920;-77
2021/03/22 04:44:12;;;;;;;;;;;4.60;82.10;;;;;;5095537;28;19912;-77
2021/03/22 04:46:38;;;;;;;;;;;4.70;82.20;;;;;;5095200;28;20361;-74
2021/03/22 04:49:03;;;;;;;;;;;4.70;82.20;;;;;;5095284;28;20342;-76
2021/03/22 04:51:29;;;;;;;;;;;4.80;82.20;;;;;;5095403;28;19912;-77
2021/03/22 04:53:55;;;;;;;;;;;4.70;82.20;;;;;;5095188;28;20319;-74
2021/03/22 04:56:21;;;;;;;;;;;4.70;82.20;;;;;;5095114;28;19920;-74
2021/03/22 04:58:47;;;;;;;;;;;4.70;82.30;;;;;;5095223;28;19908;-77
2021/03/22 05:01:12;;;;;;;;;;;4.70;82.30;;;;;;5095264;28;19915;-77
2021/03/22 05:03:38;;;;;;;;;;;4.80;82.40;;;;;;5077048;28;19957;-77
2021/03/22 05:06:06;;;;;;;;;;;4.70;82.40;;;;;;5095294;28;19942;-77
2021/03/22 05:08:31;;;;;;;;;;;4.70;82.40;;;;;;5095272;28;20006;-76
2021/03/22 05:10:59;;;;;;;;;;;4.80;82.50;;;;;;5077138;28;19955;-77
2021/03/22 05:13:25;;;;;;;;;;;4.90;82.50;;;;;;5095198;28;19928;-77
2021/03/22 05:15:51;;;;;;;;;;;4.70;82.40;;;;;;5095187;28;19912;-76
2021/03/22 05:18:17;;;;;;;;;;;4.90;82.50;;;;;;5095199;28;19919;-76
2021/03/22 05:20:45;;;;;;;;;;;4.80;82.40;;;;;;5076833;28;19916;-77
2021/03/22 05:23:12;;;;;;;;;;;4.90;82.50;;;;;;5094827;28;20003;-76
2021/03/22 05:25:37;;;;;;;;;;;4.80;82.50;;;;;;5095451;28;20293;-77
2021/03/22 05:28:04;;;;;;;;;;;4.80;82.50;;;;;;5094834;28;19916;-77
2021/03/22 05:30:29;;;;;;;;;;;4.70;82.50;;;;;;5091067;28;19938;-76
2021/03/22 05:32:56;;;;;;;;;;;4.80;82.60;;;;;;5093370;28;20324;-76
2021/03/22 05:35:22;;;;;;;;;;;4.90;82.70;;;;;;5094806;28;19994;-76
2021/03/22 05:37:47;;;;;;;;;;;4.90;82.80;;;;;;5094744;28;20326;-76
2021/03/22 05:40:20;;;;;;;;;;;4.90;82.80;;;;;;5076727;28;20354;-76
2021/03/22 05:42:52;;;;;;;;;;;4.80;82.70;;;;;;5090979;28;19912;-75
2021/03/22 05:45:32;;;;;;;;;;;4.90;82.70;;;;;;5094680;28;20289;-74
2021/03/22 05:48:05;;;;;;;;;;;4.90;82.70;;;;;;5094331;28;19943;-74
2021/03/22 05:50:34;;;;;;;;;;;4.90;82.70;;;;;;5090387;28;19912;-74
2021/03/22 05:53:05;;;;;;;;;;;5.00;82.80;;;;;;5057693;28;20259;-74
2021/03/22 05:55:49;;;;;;;;;;;4.90;82.70;;;;;;5094455;28;19912;-76
2021/03/22 05:58:29;;;;;;;;;;;4.90;82.70;;;;;;5094409;28;20274;-74
2021/03/22 06:00:59;;;;;;;;;;;5.00;82.80;;;;;;5092404;28;19970;-75
2021/03/22 06:03:29;;;;;;;;;;;4.90;82.80;;;;;;5094148;28;19911;-74
2021/03/22 06:06:00;;;;;;;;;;;5.00;82.80;;;;;;5075289;28;19947;-74
2021/03/22 06:08:30;;;;;;;;;;;5.00;82.80;;;;;;5094065;28;19935;-74
2021/03/22 06:10:56;;;;;;;;;;;5.00;82.90;;;;;;5076114;28;20457;-74
2021/03/22 06:13:25;;;;;;;;;;;5.00;82.90;;;;;;5094307;28;20011;-74
2021/03/22 06:15:56;;;;;;;;;;;5.00;82.90;;;;;;5094052;28;20006;-74
2021/03/22 06:18:26;;;;;;;;;;;5.10;83.00;;;;;;5094086;28;19912;-75
2021/03/22 06:20:54;;;;;;;;;;;5.10;83.00;;;;;;5094333;28;20370;-75
2021/03/22 06:23:23;;;;;;;;;;;5.10;83.00;;;;;;5093962;28;19912;-75
2021/03/22 06:25:48;;;;;;;;;;;5.10;83.00;;;;;;5093861;28;19908;-75
2021/03/22 06:28:19;;;;;;;;;;;5.10;83.00;;;;;;5094056;28;19927;-75
2021/03/22 06:30:56;;;;;;;;;;;5.10;83.00;;;;;;5094412;28;19916;-75
2021/03/22 06:33:25;;;;;;;;;;;5.10;83.10;;;;;;5094126;28;20344;-75
2021/03/22 06:35:50;;;;;;;;;;;5.10;83.10;;;;;;5094261;28;19912;-75
2021/03/22 06:38:16;;;;;;;;;;;5.20;83.20;;;;;;5094126;28;19919;-75
2021/03/22 06:40:41;;;;;;;;;;;5.20;83.20;;;;;;5093777;28;19916;-75
2021/03/22 06:43:10;;;;;;;;;;;5.20;83.20;;;;;;5093218;28;20354;-75
2021/03/22 06:45:37;;;;;;;;;;;5.20;83.10;;;;;;5074932;28;20273;-75
2021/03/22 06:48:12;;;;;;;;;;;5.30;83.80;;;;;;5094828;28;20362;-76
2021/03/22 06:50:37;;;;;;;;;;;5.30;83.10;;;;;;5093336;28;19918;-75
2021/03/22 06:53:03;;;;;;;;;;;5.30;83.10;;;;;;5094905;28;20369;-76
2021/03/22 06:55:33;;;;;;;;;;;5.30;83.10;;;;;;5096882;28;19912;-76
2021/03/22 06:57:59;;;;;;;;;;;5.30;83.70;;;;;;5079981;28;19912;-75
2021/03/22 07:00:26;;;;;;;;;;;5.30;83.10;;;;;;5079850;28;19911;-75
2021/03/22 07:02:53;;;;;;;;;;;5.30;83.10;;;;;;5097762;28;19918;-76
2021/03/22 07:05:28;;;;;;;;;;;5.40;83.10;;;;;;5102519;28;19912;-75
2021/03/22 07:07:54;;;;;;;;;;;5.30;83.10;;;;;;5100152;28;19915;-75
2021/03/22 07:10:21;;;;;;;;;;;5.40;83.20;;;;;;5104740;28;19922;-76
2021/03/22 07:12:47;;;;;;;;;;;5.50;83.20;;;;;;5101539;28;19912;-77
2021/03/22 07:15:19;;;;;;;;;;;5.50;83.00;;;;;;5098045;28;19966;-79
2021/03/22 07:17:59;;;;;;;;;;;5.60;83.00;;;;;;5057716;28;19924;-82
2021/03/22 07:20:25;;;;;;;;;;;5.70;82.90;;;;;;5074017;28;19969;-77
2021/03/22 07:22:50;;;;;;;;;;;5.70;82.90;;;;;;5093943;28;19912;-78
2021/03/22 07:25:27;;;;;;;;;;;5.70;82.90;;;;;;5110984;28;19942;-77
2021/03/22 07:27:56;;;;;;;;;;;5.70;82.80;;;;;;5115114;28;19994;-78
2021/03/22 07:30:46;;;;;;;;;;;5.70;82.80;;;;;;5086480;28;19911;-83
2021/03/22 07:33:23;;;;;;;;;;;5.70;82.90;;;;;;5075251;28;19912;-75
2021/03/22 07:35:53;;;;;;;;;;;5.70;82.90;;;;;;5097611;28;19916;-77
2021/03/22 07:38:24;;;;;;;;;;;5.70;83.10;;;;;;5077015;28;19950;-77
2021/03/22 07:40:51;;;;;;;;;;;5.70;83.20;;;;;;5095836;28;19923;-76
2021/03/22 07:43:32;;;;;;;;;;;5.60;83.00;;;;;;5093366;28;19912;-80
2021/03/22 07:46:12;;;;;;;;;;;5.60;83.20;;;;;;5076632;28;19966;-82
2021/03/22 07:48:43;;;;;;;;;;;5.60;83.20;;;;;;5073872;28;19924;-79
2021/03/22 07:51:22;;;;;;;;;;;5.70;83.20;;;;;;5093517;28;19912;-80
2021/03/22 07:54:02;;;;;;;;;;;5.70;83.20;;;;;;5104653;28;19958;-79
2021/03/22 07:56:38;;;;;;;;;;;5.70;83.30;;;;;;5113906;28;19954;-78
2021/03/22 07:59:08;;;;;;;;;;;5.70;83.20;;;;;;5113979;28;19924;-79
2021/03/22 08:01:53;;;;;;;;;;;5.70;83.20;;;;;;5116783;28;19920;-78
2021/03/22 08:04:35;;;;;;;;;;;5.70;83.30;;;;;;5117471;28;19904;-79
2021/03/22 08:07:06;;;;;;;;;;;5.80;83.40;;;;;;5116290;28;19903;-79
2021/03/22 08:09:42;;;;;;;;;;;5.90;83.30;;;;;;5116025;28;19919;-78
2021/03/22 08:12:21;;;;;;;;;;;5.90;83.20;;;;;;5116339;28;19933;-78
2021/03/22 08:14:47;;;;;;;;;;;5.90;83.10;;;;;;5115653;28;19908;-79
2021/03/22 08:17:17;;;;;;;;;;;6.00;83.10;;;;;;5115411;28;19967;-79
2021/03/22 08:19:45;;;;;;;;;;;6.10;83.10;;;;;;5095731;28;20370;-79
2021/03/22 08:22:15;;;;;;;;;;;6.10;82.80;;;;;;5112354;28;19916;-81
2021/03/22 08:24:50;;;;;;;;;;;6.30;82.90;;;;;;5107155;28;19958;-76
2021/03/22 08:27:18;;;;;;;;;;;6.30;82.80;;;;;;5093458;28;20392;-78
2021/03/22 08:29:54;;;;;;;;;;;6.30;82.70;;;;;;5095991;28;19912;-78
2021/03/22 08:32:41;;;;;;;;;;;6.40;82.80;;;;;;5097119;28;19977;-76
2021/03/22 08:35:25;;;;;;;;;;;6.50;82.80;;;;;;5063042;28;19912;-80
2021/03/22 08:37:57;;;;;;;;;;;6.60;82.70;;;;;;5096363;28;19919;-79
2021/03/22 08:40:29;;;;;;;;;;;6.70;82.60;;;;;;5092374;28;19916;-78
2021/03/22 08:42:58;;;;;;;;;;;6.70;82.50;;;;;;5074124;28;19908;-78
2021/03/22 08:45:32;;;;;;;;;;;6.80;82.60;;;;;;5040435;28;19908;-77
2021/03/22 08:48:05;;;;;;;;;;;7.00;82.40;;;;;;5039912;28;19936;-77
2021/03/22 08:50:34;;;;;;;;;;;7.00;82.40;;;;;;5045762;28;19917;-78
2021/03/22 08:53:02;;;;;;;;;;;7.10;82.30;;;;;;5050595;28;19913;-77
2021/03/22 08:55:40;;;;;;;;;;;7.30;82.30;;;;;;5049559;28;19920;-76
2021/03/22 08:58:16;;;;;;;;;;;7.40;82.10;;;;;;5032959;28;19912;-78
2021/03/22 09:00:43;;;;;;;;;;;7.50;81.70;;;;;;5048243;28;19916;-77
2021/03/22 09:03:25;;;;;;;;;;;7.60;81.50;;;;;;5051897;28;19913;-75
2021/03/22 09:06:06;;;;;;;;;;;7.80;81.40;;;;;;5052108;28;19955;-77
2021/03/22 09:08:33;;;;;;;;;;;7.80;81.40;;;;;;5052316;28;20026;-76
2021/03/22 09:11:17;;;;;;;;;;;7.70;81.30;;;;;;5054962;28;19908;-75
2021/03/22 09:13:57;;;;;;;;;;;7.70;81.40;;;;;;5035017;28;20359;-74
2021/03/22 09:16:42;;;;;;;;;;;7.70;81.50;;;;;;5082363;28;19961;-78
2021/03/22 09:19:28;;;;;;;;;;;7.80;82.10;;;;;;5089992;28;19934;-83
2021/03/22 09:22:13;;;;;;;;;;;7.80;82.20;;;;;;5060276;28;19948;-81
2021/03/22 09:24:48;;;;;;;;;;;8.20;82.00;;;;;;5085284;28;19923;-81
2021/03/22 09:27:31;;;;;;;;;;;8.40;81.30;;;;;;5088033;28;19912;-84
2021/03/22 09:30:25;;;;;;;;;;;8.40;80.80;;;;;;5078524;28;19935;-83
2021/03/22 09:32:50;;;;;;;;;;;8.30;81.00;;;;;;5081540;28;20311;-83
2021/03/22 09:35:31;;;;;;;;;;;8.20;81.20;;;;;;5098783;28;19916;-77
2021/03/22 09:38:00;;;;;;;;;;;8.20;81.30;;;;;;5100389;28;19916;-77
2021/03/22 09:40:45;;;;;;;;;;;8.10;81.50;;;;;;5101563;28;19919;-77
2021/03/22 09:43:20;;;;;;;;;;;7.90;81.80;;;;;;5085437;28;20369;-75
2021/03/22 09:46:04;;;;;;;;;;;7.80;82.20;;;;;;5104751;28;19916;-80
2021/03/22 09:48:32;;;;;;;;;;;7.70;82.40;;;;;;5110005;28;20010;-81
2021/03/22 09:51:18;;;;;;;;;;;7.60;82.70;;;;;;5095742;28;19911;-79
2021/03/22 09:54:02;;;;;;;;;;;7.60;83.10;;;;;;5090077;28;19908;-77
2021/03/22 09:56:29;;;;;;;;;;;7.70;83.20;;;;;;5103997;28;19916;-77
2021/03/22 09:59:13;;;;;;;;;;;7.80;83.20;;;;;;5106858;28;19961;-75
2021/03/22 10:01:40;;;;;;;;;;;7.70;83.30;;;;;;5098487;28;19916;-75
2021/03/22 10:04:27;;;;;;;;;;;7.70;83.00;;;;;;5077903;28;19912;-76
2021/03/22 10:07:00;;;;;;;;;;;7.80;83.00;;;;;;5078237;28;19912;-75
2021/03/22 10:09:37;;;;;;;;;;;7.80;82.60;;;;;;5094303;28;20013;-76
2021/03/22 10:12:14;;;;;;;;;;;7.90;82.70;;;;;;5095478;28;20415;-75
2021/03/22 10:14:42;;;;;;;;;;;8.00;82.60;;;;;;5093886;28;19960;-76
2021/03/22 10:17:18;;;;;;;;;;;8.10;82.70;;;;;;5094001;28;20285;-77
2021/03/22 10:19:45;;;;;;;;;;;8.30;82.50;;;;;;5093255;28;19912;-76
2021/03/22 10:22:20;;;;;;;;;;;8.50;82.20;;;;;;5094772;28;19923;-77
2021/03/22 10:25:05;;;;;;;;;;;8.60;81.80;;;;;;5097538;28;19923;-76
2021/03/22 10:27:33;;;;;;;;;;;8.60;81.20;;;;;;5097365;28;19912;-79
2021/03/22 10:30:16;;;;;;;;;;;8.70;81.10;;;;;;5095598;28;19961;-78
2021/03/22 10:32:45;;;;;;;;;;;8.60;81.00;;;;;;5075855;28;20366;-77
2021/03/22 10:35:14;;;;;;;;;;;8.70;81.10;;;;;;5094365;28;19916;-78
2021/03/22 10:37:46;;;;;;;;;;;8.70;81.10;;;;;;5093996;28;19912;-78
2021/03/22 10:40:20;;;;;;;;;;;8.70;80.90;;;;;;5094731;28;19918;-78
2021/03/22 10:42:45;;;;;;;;;;;8.70;80.90;;;;;;5082124;28;19916;-79
2021/03/22 10:45:25;;;;;;;;;;;8.70;81.10;;;;;;5076353;28;20373;-78
2021/03/22 10:47:52;;;;;;;;;;;8.60;81.20;;;;;;5094884;28;19961;-76
2021/03/22 10:50:23;;;;;;;;;;;8.50;81.30;;;;;;5095006;28;19912;-79
2021/03/22 10:53:09;;;;;;;;;;;8.40;81.60;;;;;;5081890;28;20270;-81
2021/03/22 10:55:35;;;;;;;;;;;8.40;81.70;;;;;;5017622;28;19913;-76
2021/03/22 10:58:02;;;;;;;;;;;8.30;81.90;;;;;;5035516;28;19920;-78
2021/03/22 11:00:31;;;;;;;;;;;8.30;82.00;;;;;;5036336;28;19913;-77
2021/03/22 11:02:58;;;;;;;;;;;8.40;82.00;;;;;;5037025;28;20286;-76
2021/03/22 11:05:28;;;;;;;;;;;8.50;82.00;;;;;;5029568;28;20367;-78
2021/03/22 11:07:58;;;;;;;;;;;8.50;81.90;;;;;;5034231;28;20332;-78
2021/03/22 11:10:25;;;;;;;;;;;8.60;81.80;;;;;;5031879;28;20345;-76
2021/03/22 11:12:51;;;;;;;;;;;8.70;81.60;;;;;;5031141;28;20404;-75
2021/03/22 11:15:28;;;;;;;;;;;8.70;81.40;;;;;;5032369;28;19913;-79
2021/03/22 11:17:54;;;;;;;;;;;8.80;81.30;;;;;;4999704;28;19914;-78
2021/03/22 11:20:20;;;;;;;;;;;8.90;81.20;;;;;;4979210;28;19930;-78
2021/03/22 11:22:47;;;;;;;;;;;9.00;81.10;;;;;;4996329;28;20283;-79
2021/03/22 11:25:29;;;;;;;;;;;9.00;80.90;;;;;;4996968;28;19914;-80
2021/03/22 11:27:57;;;;;;;;;;;9.10;80.70;;;;;;5054631;28;20016;-77
2021/03/22 11:30:35;;;;;;;;;;;9.00;80.60;;;;;;5033923;28;20297;-77
2021/03/22 11:33:09;;;;;;;;;;;8.90;80.80;;;;;;5049170;28;19963;-77
2021/03/22 11:35:35;;;;;;;;;;;8.90;80.90;;;;;;5049228;28;20418;-77
2021/03/22 11:38:03;;;;;;;;;;;8.90;81.00;;;;;;5050331;28;20333;-77
2021/03/22 11:40:30;;;;;;;;;;;8.90;80.90;;;;;;5050766;28;19974;-77
2021/03/22 11:42:59;;;;;;;;;;;8.90;81.10;;;;;;5050326;28;19936;-77
2021/03/22 11:45:41;;;;;;;;;;;8.90;81.20;;;;;;5050504;28;19996;-77
2021/03/22 11:48:27;;;;;;;;;;;8.80;81.10;;;;;;5055442;28;19947;-77
2021/03/22 11:51:00;;;;;;;;;;;8.80;81.00;;;;;;5092508;28;20361;-77
2021/03/22 11:53:26;;;;;;;;;;;8.70;81.10;;;;;;5092636;28;19915;-77
2021/03/22 11:55:53;;;;;;;;;;;8.60;81.30;;;;;;5092671;28;19991;-76
2021/03/22 11:58:34;;;;;;;;;;;8.60;81.40;;;;;;5092717;28;20529;-77
2021/03/22 12:01:14;;;;;;;;;;;8.50;81.40;;;;;;5094854;28;19916;-80
2021/03/22 12:03:40;;;;;;;;;;;8.60;81.40;;;;;;5096550;28;19977;-78
2021/03/22 12:06:08;;;;;;;;;;;8.50;81.40;;;;;;5104560;28;20338;-78
2021/03/22 12:08:36;;;;;;;;;;;8.60;81.50;;;;;;5093089;28;19979;-77
2021/03/22 12:11:03;;;;;;;;;;;8.50;81.40;;;;;;5092921;28;19908;-77
2021/03/22 12:13:29;;;;;;;;;;;8.60;81.30;;;;;;5073714;28;19912;-75
2021/03/22 12:15:59;;;;;;;;;;;8.60;81.30;;;;;;5092809;28;19908;-83
2021/03/22 12:18:39;;;;;;;;;;;8.70;81.30;;;;;;5072999;28;19995;-78
2021/03/22 12:21:08;;;;;;;;;;;8.80;81.20;;;;;;5095712;28;19963;-78
2021/03/22 12:23:34;;;;;;;;;;;9.00;80.80;;;;;;5102693;28;19928;-77
2021/03/22 12:25:59;;;;;;;;;;;9.00;80.60;;;;;;5108794;28;20086;-76
2021/03/22 12:28:25;;;;;;;;;;;9.10;80.60;;;;;;5095949;28;19912;-75
2021/03/22 12:30:51;;;;;;;;;;;9.00;80.60;;;;;;5095875;28;19966;-75
2021/03/22 12:33:19;;;;;;;;;;;9.00;80.40;;;;;;5097977;28;19970;-76
2021/03/22 12:35:44;;;;;;;;;;;9.00;80.30;;;;;;5098215;28;19919;-76
2021/03/22 12:38:10;;;;;;;;;;;9.20;80.30;;;;;;5098133;28;19947;-78
2021/03/22 12:40:36;;;;;;;;;;;9.20;80.10;;;;;;5098172;28;20281;-77
2021/03/22 12:43:02;;;;;;;;;;;9.30;79.70;;;;;;5102726;28;19912;-76
2021/03/22 12:45:31;;;;;;;;;;;9.30;79.80;;;;;;5097595;28;19962;-76
2021/03/22 12:47:57;;;;;;;;;;;9.20;79.70;;;;;;5084080;28;19912;-76
2021/03/22 12:50:26;;;;;;;;;;;9.30;79.90;;;;;;5094539;28;19912;-79
2021/03/22 12:52:52;;;;;;;;;;;9.30;79.80;;;;;;5091113;28;19931;-77
2021/03/22 12:55:18;;;;;;;;;;;9.30;79.70;;;;;;5085832;28;19912;-78
2021/03/22 12:57:47;;;;;;;;;;;9.30;79.70;;;;;;5096426;28;19912;-76
2021/03/22 13:00:14;;;;;;;;;;;9.40;79.50;;;;;;5095859;28;20364;-76
2021/03/22 13:02:40;;;;;;;;;;;9.50;79.50;;;;;;5099239;28;20419;-75
2021/03/22 13:05:13;;;;;;;;;;;9.50;79.40;;;;;;5104677;28;19941;-76
2021/03/22 13:07:43;;;;;;;;;;;9.50;79.20;;;;;;5099930;28;19920;-77
2021/03/22 13:10:13;;;;;;;;;;;9.40;79.00;;;;;;5099612;28;19912;-80
2021/03/22 13:12:38;;;;;;;;;;;9.50;79.20;;;;;;5102676;28;19926;-77
2021/03/22 13:15:14;;;;;;;;;;;9.40;79.10;;;;;;5081886;28;19948;-80
2021/03/22 13:17:42;;;;;;;;;;;9.40;79.00;;;;;;5099612;28;19943;-76
2021/03/22 13:20:08;;;;;;;;;;;9.50;79.10;;;;;;5064150;28;19911;-77
2021/03/22 13:22:34;;;;;;;;;;;9.50;79.00;;;;;;5101817;28;19916;-77
2021/03/22 13:25:00;;;;;;;;;;;9.60;79.00;;;;;;5102992;28;19912;-77
2021/03/22 13:27:26;;;;;;;;;;;9.60;78.80;;;;;;5107427;28;19947;-76
2021/03/22 13:29:52;;;;;;;;;;;9.50;78.60;;;;;;5099621;28;19977;-76
2021/03/22 13:32:18;;;;;;;;;;;9.60;78.70;;;;;;5094615;28;19943;-76
2021/03/22 13:34:44;;;;;;;;;;;9.60;78.60;;;;;;5094513;28;19912;-76
2021/03/22 13:37:14;;;;;;;;;;;9.60;78.70;;;;;;5094809;28;19919;-76
2021/03/22 13:39:40;;;;;;;;;;;9.60;78.70;;;;;;5094524;28;19917;-76
2021/03/22 13:42:05;;;;;;;;;;;9.70;78.70;;;;;;5093918;28;20423;-76
2021/03/22 13:44:31;;;;;;;;;;;9.80;78.60;;;;;;5093817;28;19967;-76
2021/03/22 13:46:57;;;;;;;;;;;9.80;78.60;;;;;;5093855;28;19912;-76
2021/03/22 13:49:22;;;;;;;;;;;9.80;78.60;;;;;;5093579;28;19912;-76
2021/03/22 13:51:48;;;;;;;;;;;9.80;78.60;;;;;;5094422;28;19916;-78
2021/03/22 13:54:15;;;;;;;;;;;9.70;78.60;;;;;;5075276;28;19959;-79
2021/03/22 13:56:40;;;;;;;;;;;9.60;78.70;;;;;;5094877;28;19961;-77
2021/03/22 13:59:26;;;;;;;;;;;9.60;78.90;;;;;;5074323;28;19987;-75
2021/03/22 14:02:02;;;;;;;;;;;9.60;79.10;;;;;;5095549;28;19940;-79
2021/03/22 14:04:28;;;;;;;;;;;9.50;79.00;;;;;;5077496;28;19912;-77
2021/03/22 14:06:56;;;;;;;;;;;9.60;78.90;;;;;;5075957;28;19934;-76
2021/03/22 14:12:38;;;;;;;;;;;9.70;78.60;;;;;;5092542;28;19958;-76
2021/03/22 14:15:05;;;;;;;;;;;9.60;78.50;;;;;;5076826;28;19947;-75
2021/03/22 14:17:30;;;;;;;;;;;9.60;78.60;;;;;;5094591;28;19920;-76
2021/03/22 14:19:58;;;;;;;;;;;9.70;78.80;;;;;;5094102;28;20464;-78
2021/03/22 14:22:24;;;;;;;;;;;9.50;78.80;;;;;;5077939;28;19923;-78
2021/03/22 14:24:55;;;;;;;;;;;9.50;78.80;;;;;;5061861;28;19912;-81
2021/03/22 14:27:20;;;;;;;;;;;9.60;78.80;;;;;;5078514;28;19932;-76
2021/03/22 14:29:46;;;;;;;;;;;9.50;78.80;;;;;;5093958;28;19911;-75
2021/03/22 14:32:11;;;;;;;;;;;9.50;78.80;;;;;;5098666;28;19954;-76
2021/03/22 14:34:37;;;;;;;;;;;9.50;78.70;;;;;;5100143;28;19912;-75
2021/03/22 14:37:03;;;;;;;;;;;9.70;78.50;;;;;;5062680;28;19916;-78
2021/03/22 14:39:28;;;;;;;;;;;9.60;78.30;;;;;;5105865;28;19919;-77
2021/03/22 14:41:54;;;;;;;;;;;9.70;78.30;;;;;;5099427;28;20015;-76
2021/03/22 14:44:21;;;;;;;;;;;9.70;78.20;;;;;;5094177;28;19912;-75
2021/03/22 14:46:46;;;;;;;;;;;9.80;78.10;;;;;;5093514;28;20053;-75
2021/03/22 14:49:12;;;;;;;;;;;9.80;77.80;;;;;;5076051;28;19965;-76